createdAt,value
2023-04-26T00:01:04.924Z,17.55
2023-04-26T00:03:31.907Z,10.75
2023-04-26T00:06:00.108Z,18.25
2023-04-26T00:08:26.777Z,12.15
2023-04-26T00:10:53.500Z,13.05
2023-04-26T00:13:20.125Z,15.85
2023-04-26T00:15:46.795Z,13.95
2023-04-26T00:18:13.572Z,11.10
2023-04-26T00:20:40.227Z,11.23
2023-04-26T00:23:06.852Z,12.13
2023-04-26T00:25:33.497Z,10.85
2023-04-26T00:28:00.196Z,10.13
2023-04-26T00:30:26.831Z,9.27
2023-04-26T00:32:53.609Z,9.77
2023-04-26T00:35:20.524Z,15.80
2023-04-26T00:37:47.214Z,13.00
2023-04-26T00:40:14.030Z,15.05
2023-04-26T00:42:40.739Z,12.60
2023-04-26T00:45:07.934Z,8.65
2023-04-26T00:47:34.566Z,9.13
2023-04-26T00:50:01.444Z,13.07
2023-04-26T00:52:28.100Z,14.38
2023-04-26T00:54:54.755Z,13.88
2023-04-26T00:57:22.047Z,9.80
2023-04-26T00:59:48.790Z,11.50
2023-04-26T01:02:15.607Z,15.85
2023-04-26T01:04:42.266Z,14.15
2023-04-26T01:07:08.909Z,12.82
2023-04-26T01:09:35.533Z,15.18
2023-04-26T01:12:02.148Z,12.32
2023-04-26T01:14:28.786Z,10.88
2023-04-26T01:16:56.661Z,12.68
2023-04-26T01:19:23.266Z,14.07
2023-04-26T01:21:50.001Z,17.13
2023-04-26T01:24:16.703Z,13.45
2023-04-26T01:26:43.442Z,10.77
2023-04-26T01:29:16.488Z,9.00
2023-04-26T01:31:43.326Z,14.90
2023-04-26T01:34:09.971Z,12.45
2023-04-26T01:36:36.571Z,12.93
2023-04-26T01:39:03.358Z,11.40
2023-04-26T01:41:30.215Z,11.05
2023-04-26T01:43:56.837Z,11.35
2023-04-26T01:46:23.488Z,17.58
2023-04-26T01:48:50.258Z,15.80
2023-04-26T01:51:17.092Z,15.77
2023-04-26T01:53:43.758Z,14.68
2023-04-26T01:56:10.451Z,12.27
2023-04-26T01:58:37.102Z,10.88
2023-04-26T02:01:07.669Z,14.45
2023-04-26T02:03:34.847Z,12.52
2023-04-26T02:06:01.719Z,17.77
2023-04-26T02:08:28.336Z,13.10
2023-04-26T02:10:54.956Z,13.55
2023-04-26T02:13:21.632Z,12.95
2023-04-26T02:15:48.961Z,13.13
2023-04-26T02:18:15.910Z,13.27
2023-04-26T02:20:42.747Z,13.93
2023-04-26T02:23:10.084Z,10.30
2023-04-26T02:25:36.771Z,12.95
2023-04-26T02:28:04.353Z,14.73
2023-04-26T02:30:30.983Z,11.77
2023-04-26T02:32:57.874Z,10.10
2023-04-26T02:35:24.654Z,14.38
2023-04-26T02:37:51.490Z,13.43
2023-04-26T02:40:21.062Z,10.40
2023-04-26T02:42:48.374Z,17.70
2023-04-26T02:45:15.130Z,14.05
2023-04-26T02:47:41.837Z,11.52
2023-04-26T02:50:08.928Z,13.88
2023-04-26T02:52:38.782Z,11.82
2023-04-26T02:55:05.970Z,11.38
2023-04-26T02:57:32.760Z,15.93
2023-04-26T02:59:59.375Z,10.90
2023-04-26T03:02:26.457Z,14.25
2023-04-26T03:04:53.329Z,13.60
2023-04-26T03:07:20.040Z,16.45
2023-04-26T03:09:46.743Z,14.68
2023-04-26T03:12:13.383Z,12.02
2023-04-26T03:14:40.077Z,16.33
2023-04-26T03:17:06.721Z,13.55
2023-04-26T03:19:33.358Z,11.35
2023-04-26T03:22:00.044Z,13.40
2023-04-26T03:24:26.711Z,16.33
2023-04-26T03:26:53.301Z,16.98
2023-04-26T03:29:19.985Z,14.77
2023-04-26T03:31:46.661Z,14.00
2023-04-26T03:34:13.295Z,11.45
2023-04-26T03:36:39.907Z,14.05
2023-04-26T03:39:06.622Z,9.82
2023-04-26T03:41:33.316Z,13.63
2023-04-26T03:43:59.981Z,16.52
2023-04-26T03:46:26.744Z,12.77
2023-04-26T03:48:53.650Z,8.95
2023-04-26T03:51:20.602Z,13.57
2023-04-26T03:53:47.459Z,13.77
2023-04-26T03:56:14.216Z,13.63
2023-04-26T03:58:40.845Z,13.20
2023-04-26T04:01:07.473Z,12.60
2023-04-26T04:03:34.337Z,10.73
2023-04-26T04:06:01.220Z,11.40
2023-04-26T04:08:27.919Z,12.13
2023-04-26T04:10:54.589Z,14.27
2023-04-26T04:13:21.257Z,11.38
2023-04-26T04:15:47.909Z,18.60
2023-04-26T04:18:14.676Z,17.58
2023-04-26T04:20:41.730Z,12.85
2023-04-26T04:23:08.431Z,14.90
2023-04-26T04:25:35.169Z,15.77
2023-04-26T04:28:04.883Z,12.80
2023-04-26T04:30:31.481Z,12.15
2023-04-26T04:32:58.221Z,11.93
2023-04-26T04:35:25.089Z,17.10
2023-04-26T04:37:51.667Z,16.17
2023-04-26T04:40:18.324Z,18.90
2023-04-26T04:42:44.944Z,12.82
2023-04-26T04:45:11.748Z,19.73
2023-04-26T04:47:38.470Z,13.52
2023-04-26T04:50:06.706Z,15.98
2023-04-26T04:52:33.332Z,14.10
2023-04-26T04:55:00.370Z,13.05
2023-04-26T04:57:27.252Z,19.88
2023-04-26T04:59:53.945Z,16.30
2023-04-26T05:02:20.715Z,14.27
2023-04-26T05:04:47.569Z,20.75
2023-04-26T05:07:14.323Z,21.55
2023-04-26T05:09:43.661Z,15.77
2023-04-26T05:12:10.371Z,11.48
2023-04-26T05:14:36.960Z,13.35
2023-04-26T05:17:03.590Z,16.27
2023-04-26T05:19:30.248Z,13.02
2023-04-26T05:21:56.962Z,14.40
2023-04-26T05:24:23.589Z,18.40
2023-04-26T05:26:50.233Z,16.63
2023-04-26T05:29:16.928Z,16.90
2023-04-26T05:31:43.823Z,17.23
2023-04-26T05:34:10.509Z,13.27
2023-04-26T05:36:37.118Z,16.80
2023-04-26T05:39:03.885Z,18.77
2023-04-26T05:41:30.511Z,13.25
2023-04-26T05:43:57.160Z,15.27
2023-04-26T05:46:23.906Z,18.55
2023-04-26T05:48:50.583Z,16.35
2023-04-26T05:51:17.361Z,24.27
2023-04-26T05:53:44.145Z,17.52
2023-04-26T05:56:10.803Z,15.40
2023-04-26T05:58:37.463Z,18.65
2023-04-26T06:01:04.263Z,16.88
2023-04-26T06:03:31.119Z,15.23
2023-04-26T06:05:59.347Z,16.48
2023-04-26T06:08:26.154Z,18.67
2023-04-26T06:10:52.882Z,16.35
2023-04-26T06:13:19.487Z,24.20
2023-04-26T06:15:46.161Z,14.85
2023-04-26T06:18:12.896Z,17.85
2023-04-26T06:20:39.571Z,15.98
2023-04-26T06:23:06.241Z,17.05
2023-04-26T06:25:32.893Z,12.02
2023-04-26T06:28:10.243Z,20.33
2023-04-26T06:30:36.993Z,12.88
2023-04-26T06:33:03.909Z,16.75
2023-04-26T06:35:30.599Z,13.75
2023-04-26T06:37:57.266Z,14.52
2023-04-26T06:40:23.906Z,10.23
2023-04-26T06:42:50.640Z,14.82
2023-04-26T06:45:17.451Z,12.38
2023-04-26T06:47:44.143Z,13.25
2023-04-26T06:50:11.279Z,12.38
2023-04-26T06:52:37.977Z,13.23
2023-04-26T06:55:04.923Z,13.27
2023-04-26T06:57:31.807Z,13.73
2023-04-26T06:59:58.506Z,14.82
2023-04-26T07:02:25.326Z,10.02
2023-04-26T07:04:52.440Z,10.63
2023-04-26T07:07:19.496Z,16.13
2023-04-26T07:09:46.230Z,11.80
2023-04-26T07:12:13.293Z,13.85
2023-04-26T07:14:40.129Z,12.77
2023-04-26T07:17:07.514Z,13.88
2023-04-26T07:19:34.226Z,10.80
2023-04-26T07:22:00.980Z,11.13
2023-04-26T07:24:27.704Z,14.25
2023-04-26T07:26:54.416Z,9.90
2023-04-26T07:29:21.116Z,16.33
2023-04-26T07:31:47.753Z,14.10
2023-04-26T07:34:14.558Z,17.23
2023-04-26T07:36:41.322Z,12.25
2023-04-26T07:39:09.219Z,14.30
2023-04-26T07:41:36.091Z,12.35
2023-04-26T07:44:03.193Z,12.23
2023-04-26T07:46:30.424Z,11.57
2023-04-26T07:48:57.133Z,11.35
2023-04-26T07:51:23.814Z,11.98
2023-04-26T07:53:50.892Z,11.27
2023-04-26T07:56:17.822Z,14.65
2023-04-26T07:58:44.514Z,9.65
2023-04-26T08:01:11.192Z,6.80
2023-04-26T08:03:41.460Z,10.93
2023-04-26T08:06:08.826Z,6.38
2023-04-26T08:08:35.925Z,6.90
2023-04-26T08:11:02.590Z,8.95
2023-04-26T08:13:29.627Z,5.20
2023-04-26T08:15:56.536Z,9.95
2023-04-26T08:18:23.828Z,8.13
2023-04-26T08:20:50.567Z,9.52
2023-04-26T08:23:17.166Z,8.93
2023-04-26T08:25:45.511Z,7.32
2023-04-26T08:28:16.356Z,8.30
2023-04-26T08:30:43.254Z,3.38
2023-04-26T08:33:10.482Z,6.80
2023-04-26T08:35:39.779Z,6.03
2023-04-26T08:38:06.393Z,9.27
2023-04-26T08:40:33.154Z,9.50
2023-04-26T08:42:59.755Z,6.50
2023-04-26T08:45:26.474Z,11.13
2023-04-26T08:47:53.636Z,7.22
2023-04-26T08:50:22.111Z,5.60
2023-04-26T08:52:49.903Z,4.00
2023-04-26T08:55:16.927Z,6.45
2023-04-26T08:57:45.886Z,4.75
2023-04-26T09:00:13.232Z,7.65
2023-04-26T09:02:40.824Z,5.80
2023-04-26T09:05:08.322Z,5.57
2023-04-26T09:07:47.039Z,4.53
2023-04-26T09:10:14.738Z,6.30
2023-04-26T09:12:41.417Z,5.15
2023-04-26T09:15:08.719Z,5.35
2023-04-26T09:17:37.198Z,8.18
2023-04-26T09:20:33.566Z,6.05
2023-04-26T09:23:09.131Z,8.73
2023-04-26T09:25:36.012Z,5.80
2023-04-26T09:28:03.408Z,6.28
2023-04-26T09:30:30.271Z,10.40
2023-04-26T09:32:58.734Z,5.85
2023-04-26T09:35:28.427Z,6.90
2023-04-26T09:38:13.881Z,10.13
2023-04-26T09:40:50.346Z,8.45
2023-04-26T09:43:23.059Z,7.75
2023-04-26T09:45:57.351Z,8.80
2023-04-26T09:48:23.933Z,4.82
2023-04-26T09:50:51.894Z,6.05
2023-04-26T09:53:31.252Z,7.50
2023-04-26T09:56:05.780Z,5.28
2023-04-26T09:58:32.411Z,7.32
2023-04-26T10:00:59.141Z,5.95
2023-04-26T10:03:26.047Z,6.68
2023-04-26T10:05:53.167Z,7.72
2023-04-26T10:08:20.962Z,7.13
2023-04-26T10:10:47.714Z,5.53
2023-04-26T10:13:16.761Z,4.72
2023-04-26T10:15:43.588Z,8.45
2023-04-26T10:18:10.331Z,4.13
2023-04-26T10:20:40.553Z,7.93
2023-04-26T10:23:07.408Z,6.53
2023-04-26T10:25:37.812Z,7.50
2023-04-26T10:28:04.648Z,4.65
2023-04-26T10:30:31.358Z,5.40
2023-04-26T10:32:58.207Z,8.52
2023-04-26T10:35:26.217Z,5.82
2023-04-26T10:38:02.239Z,4.38
2023-04-26T10:40:31.252Z,4.40
2023-04-26T10:43:12.848Z,5.25
2023-04-26T10:45:39.925Z,6.90
2023-04-26T10:48:19.994Z,8.43
2023-04-26T10:50:59.019Z,4.72
2023-04-26T10:53:25.723Z,6.32
2023-04-26T10:55:52.427Z,6.15
2023-04-26T10:58:34.833Z,3.47
2023-04-26T11:01:15.399Z,5.25
2023-04-26T11:03:42.375Z,5.45
2023-04-26T11:06:10.168Z,7.60
2023-04-26T11:08:36.845Z,3.95
2023-04-26T11:11:03.482Z,3.38
2023-04-26T11:13:33.403Z,6.55
2023-04-26T11:16:04.285Z,4.47
2023-04-26T11:18:31.706Z,3.58
2023-04-26T11:20:58.654Z,3.70
2023-04-26T11:23:26.936Z,3.15
2023-04-26T11:25:53.614Z,4.63
2023-04-26T11:28:20.605Z,5.20
2023-04-26T11:30:47.748Z,5.97
2023-04-26T11:33:18.479Z,2.45
2023-04-26T11:36:03.754Z,6.20
2023-04-26T11:38:30.516Z,4.90
2023-04-26T11:41:01.680Z,5.50
2023-04-26T11:43:34.420Z,11.35
2023-04-26T11:46:01.132Z,5.35
2023-04-26T11:48:28.547Z,4.15
2023-04-26T11:50:56.623Z,4.57
2023-04-26T11:53:23.257Z,4.22
2023-04-26T11:55:50.000Z,4.43
2023-04-26T11:58:16.666Z,3.75
2023-04-26T12:01:03.641Z,4.22
2023-04-26T12:03:36.737Z,6.60
2023-04-26T12:06:04.255Z,5.25
2023-04-26T12:08:32.365Z,5.45
2023-04-26T12:11:00.058Z,6.43
2023-04-26T12:13:26.830Z,5.47
2023-04-26T12:15:53.681Z,5.93
2023-04-26T12:18:20.406Z,6.85
2023-04-26T12:20:47.168Z,5.85
2023-04-26T12:23:15.412Z,5.50
2023-04-26T12:25:51.758Z,4.85
2023-04-26T12:28:18.494Z,5.55
2023-04-26T12:30:45.125Z,8.85
2023-04-26T12:33:16.956Z,4.25
2023-04-26T12:35:44.793Z,6.90
2023-04-26T12:38:11.745Z,15.90
2023-04-26T12:40:41.460Z,8.23
2023-04-26T12:43:08.651Z,6.93
2023-04-26T12:45:35.273Z,7.55
2023-04-26T12:48:01.977Z,8.02
2023-04-26T12:50:28.805Z,6.40
2023-04-26T12:52:55.524Z,5.35
2023-04-26T12:55:22.209Z,11.60
2023-04-26T12:57:48.882Z,6.82
2023-04-26T13:00:16.463Z,7.57
2023-04-26T13:02:43.411Z,4.57
2023-04-26T13:05:10.330Z,3.80
2023-04-26T13:07:38.193Z,4.10
2023-04-26T13:10:05.475Z,2.88
2023-04-26T13:12:32.119Z,5.70
2023-04-26T13:14:58.815Z,5.35
2023-04-26T13:17:25.772Z,5.53
2023-04-26T13:19:53.037Z,8.48
2023-04-26T13:22:20.164Z,3.67
2023-04-26T13:24:46.795Z,5.45
2023-04-26T13:27:13.477Z,6.82
2023-04-26T13:29:40.981Z,5.35
2023-04-26T13:32:07.870Z,6.45
2023-04-26T13:34:34.884Z,5.88
2023-04-26T13:37:01.757Z,6.95
2023-04-26T13:39:28.433Z,6.63
2023-04-26T13:41:55.163Z,4.50
2023-04-26T13:44:21.884Z,4.05
2023-04-26T13:46:48.656Z,7.22
2023-04-26T13:49:15.472Z,7.03
2023-04-26T13:51:42.127Z,6.07
2023-04-26T13:54:08.811Z,5.43
2023-04-26T13:56:35.549Z,7.45
2023-04-26T13:59:02.150Z,6.25
2023-04-26T14:01:28.946Z,7.40
2023-04-26T14:03:56.249Z,3.80
2023-04-26T14:06:23.209Z,5.68
2023-04-26T14:08:50.051Z,5.95
2023-04-26T14:11:16.789Z,7.57
2023-04-26T14:13:43.449Z,11.25
2023-04-26T14:16:10.137Z,7.20
2023-04-26T14:18:37.145Z,9.32
2023-04-26T14:21:03.945Z,5.50
2023-04-26T14:23:30.763Z,6.40
2023-04-26T14:25:57.443Z,5.65
2023-04-26T14:28:24.270Z,5.43
2023-04-26T14:30:51.101Z,7.10
2023-04-26T14:33:17.891Z,7.22
2023-04-26T14:35:44.660Z,5.20
2023-04-26T14:38:11.319Z,6.35
2023-04-26T14:40:38.116Z,7.22
2023-04-26T14:43:04.795Z,7.72
2023-04-26T14:45:43.444Z,5.13
2023-04-26T14:48:11.531Z,5.63
2023-04-26T14:50:38.232Z,5.50
2023-04-26T14:53:05.042Z,5.63
2023-04-26T14:55:31.807Z,6.45
2023-04-26T14:57:58.431Z,4.88
2023-04-26T15:00:25.178Z,6.18
2023-04-26T15:02:51.950Z,4.50
2023-04-26T15:05:18.890Z,3.75
2023-04-26T15:07:45.560Z,4.70
2023-04-26T15:10:12.369Z,7.13
2023-04-26T15:12:39.099Z,3.88
2023-04-26T15:15:06.333Z,3.67
2023-04-26T15:17:33.484Z,3.90
2023-04-26T15:20:01.171Z,4.18
2023-04-26T15:22:27.892Z,5.07
2023-04-26T15:24:54.522Z,5.38
2023-04-26T15:27:21.268Z,5.85
2023-04-26T15:29:48.126Z,4.45
2023-04-26T15:32:14.792Z,4.80
2023-04-26T15:34:41.739Z,4.45
2023-04-26T15:37:08.442Z,5.68
2023-04-26T15:39:35.163Z,5.57
2023-04-26T15:42:01.881Z,7.90
2023-04-26T15:44:29.391Z,5.30
2023-04-26T15:46:56.038Z,4.07
2023-04-26T15:49:25.990Z,4.72
2023-04-26T15:51:52.690Z,6.28
2023-04-26T15:54:19.318Z,4.18
2023-04-26T15:56:45.958Z,9.43
2023-04-26T15:59:12.669Z,4.45
2023-04-26T16:01:39.677Z,8.45
2023-04-26T16:04:06.507Z,7.63
2023-04-26T16:06:33.550Z,5.47
2023-04-26T16:09:00.627Z,5.47
2023-04-26T16:11:28.095Z,4.65
2023-04-26T16:14:08.081Z,4.93
2023-04-26T16:16:37.157Z,5.13
2023-04-26T16:19:04.996Z,5.30
2023-04-26T16:21:31.692Z,4.03
2023-04-26T16:23:59.355Z,7.40
2023-04-26T16:26:29.665Z,7.00
2023-04-26T16:28:57.605Z,4.45
2023-04-26T16:31:24.449Z,8.57
2023-04-26T16:33:51.925Z,6.28
2023-04-26T16:36:18.990Z,4.03
2023-04-26T16:38:45.955Z,3.92
2023-04-26T16:41:12.817Z,5.65
2023-04-26T16:43:39.522Z,5.70
2023-04-26T16:46:07.585Z,5.00
2023-04-26T16:48:35.513Z,4.03
2023-04-26T16:51:04.145Z,4.50
2023-04-26T16:53:33.457Z,6.25
2023-04-26T16:56:00.227Z,5.20
2023-04-26T16:58:29.184Z,4.43
2023-04-26T17:00:55.907Z,5.57
2023-04-26T17:03:23.223Z,10.43
2023-04-26T17:05:50.297Z,7.47
2023-04-26T17:08:17.669Z,7.25
2023-04-26T17:10:44.609Z,6.65
2023-04-26T17:13:11.374Z,6.50
2023-04-26T17:15:38.158Z,6.43
2023-04-26T17:18:05.200Z,5.70
2023-04-26T17:20:32.542Z,6.18
2023-04-26T17:22:59.989Z,7.45
2023-04-26T17:25:26.849Z,7.53
2023-04-26T17:27:53.731Z,8.48
2023-04-26T17:30:21.104Z,6.03
2023-04-26T17:32:47.938Z,5.97
2023-04-26T17:35:14.859Z,8.77
2023-04-26T17:37:41.731Z,8.35
2023-04-26T17:40:09.145Z,5.65
2023-04-26T17:42:36.092Z,5.95
2023-04-26T17:45:02.962Z,8.18
2023-04-26T17:47:29.879Z,5.82
2023-04-26T17:49:56.676Z,9.18
2023-04-26T17:52:23.496Z,6.97
2023-04-26T17:54:52.645Z,6.10
2023-04-26T17:57:19.501Z,6.72
2023-04-26T17:59:46.389Z,8.68
2023-04-26T18:02:13.280Z,6.55
2023-04-26T18:04:40.356Z,6.15
2023-04-26T18:07:07.324Z,5.63
2023-04-26T18:09:34.021Z,5.80
2023-04-26T18:12:00.819Z,6.88
2023-04-26T18:14:28.075Z,4.80
2023-04-26T18:16:54.891Z,5.05
2023-04-26T18:19:21.663Z,7.95
2023-04-26T18:21:48.328Z,12.30
2023-04-26T18:24:15.212Z,6.45
2023-04-26T18:26:41.943Z,5.55
2023-04-26T18:29:08.735Z,9.82
2023-04-26T18:31:35.429Z,7.47
2023-04-26T18:34:02.939Z,5.00
2023-04-26T18:36:29.627Z,6.72
2023-04-26T18:38:56.245Z,5.68
2023-04-26T18:41:23.105Z,7.35
2023-04-26T18:43:50.060Z,6.95
2023-04-26T18:46:16.859Z,6.80
2023-04-26T18:48:43.653Z,6.07
2023-04-26T18:51:10.264Z,5.68
2023-04-26T18:53:36.885Z,8.38
2023-04-26T18:56:04.148Z,5.65
2023-04-26T18:58:30.978Z,4.38
2023-04-26T19:00:57.704Z,7.53
2023-04-26T19:03:24.628Z,6.20
2023-04-26T19:05:51.769Z,5.20
2023-04-26T19:08:18.464Z,8.73
2023-04-26T19:10:45.274Z,7.70
2023-04-26T19:13:12.002Z,6.15
2023-04-26T19:15:38.636Z,6.57
2023-04-26T19:18:05.337Z,4.38
2023-04-26T19:20:32.084Z,9.75
2023-04-26T19:22:58.937Z,7.97
2023-04-26T19:25:25.674Z,6.38
2023-04-26T19:27:52.428Z,9.20
2023-04-26T19:30:19.104Z,7.68
2023-04-26T19:32:45.727Z,8.68
2023-04-26T19:35:12.565Z,6.72
2023-04-26T19:37:39.274Z,6.90
2023-04-26T19:40:06.881Z,6.35
2023-04-26T19:42:33.650Z,6.30
2023-04-26T19:45:00.275Z,7.07
2023-04-26T19:47:27.417Z,5.78
2023-04-26T19:49:54.371Z,8.13
2023-04-26T19:52:21.045Z,6.18
2023-04-26T19:54:47.817Z,5.18
2023-04-26T19:57:14.546Z,6.13
2023-04-26T19:59:41.386Z,8.35
2023-04-26T20:02:08.127Z,7.20
2023-04-26T20:04:35.012Z,6.20
2023-04-26T20:07:01.862Z,8.18
2023-04-26T20:09:29.623Z,8.07
2023-04-26T20:11:56.308Z,6.15
2023-04-26T20:14:23.054Z,9.98
2023-04-26T20:16:49.922Z,5.63
2023-04-26T20:19:16.710Z,9.20
2023-04-26T20:21:43.576Z,7.50
2023-04-26T20:24:10.255Z,4.95
2023-04-26T20:26:36.895Z,9.40
2023-04-26T20:29:03.996Z,6.38
2023-04-26T20:31:30.892Z,8.10
2023-04-26T20:33:59.401Z,5.68
2023-04-26T20:36:27.886Z,11.52
2023-04-26T20:38:54.655Z,9.23
2023-04-26T20:41:21.366Z,7.95
2023-04-26T20:43:48.081Z,8.02
2023-04-26T20:46:15.042Z,8.57
2023-04-26T20:48:41.826Z,10.15
2023-04-26T20:51:08.544Z,8.07
2023-04-26T20:53:35.183Z,11.68
2023-04-26T20:56:01.913Z,9.18
2023-04-26T20:58:29.557Z,8.98
2023-04-26T21:00:59.044Z,8.40
2023-04-26T21:03:26.059Z,6.38
2023-04-26T21:05:52.897Z,7.10
2023-04-26T21:08:20.726Z,14.07
2023-04-26T21:10:47.486Z,11.48
2023-04-26T21:13:15.197Z,9.05
2023-04-26T21:15:41.973Z,7.43
2023-04-26T21:18:08.613Z,7.75
2023-04-26T21:20:35.277Z,6.38
2023-04-26T21:23:01.999Z,11.65
2023-04-26T21:25:29.248Z,7.35
2023-04-26T21:27:56.018Z,8.02
2023-04-26T21:30:22.715Z,9.05
2023-04-26T21:32:49.590Z,9.32
2023-04-26T21:35:17.322Z,9.57
2023-04-26T21:37:43.997Z,8.88
2023-04-26T21:40:11.150Z,16.98
2023-04-26T21:42:39.959Z,6.10
2023-04-26T21:45:07.548Z,10.98
2023-04-26T21:47:34.164Z,10.05
2023-04-26T21:50:01.069Z,8.57
2023-04-26T21:52:28.043Z,10.57
2023-04-26T21:54:54.742Z,6.90
2023-04-26T21:57:21.461Z,11.80
2023-04-26T21:59:48.122Z,12.57
2023-04-26T22:02:14.937Z,9.23
2023-04-26T22:04:41.700Z,8.55
2023-04-26T22:07:08.325Z,8.27
2023-04-26T22:09:34.998Z,11.98
2023-04-26T22:12:01.595Z,9.55
2023-04-26T22:14:28.338Z,10.88
2023-04-26T22:16:55.071Z,9.70
2023-04-26T22:19:21.787Z,9.23
2023-04-26T22:21:48.401Z,11.85
2023-04-26T22:24:15.112Z,8.00
2023-04-26T22:26:41.702Z,11.38
2023-04-26T22:29:08.620Z,9.30
2023-04-26T22:31:35.696Z,9.23
2023-04-26T22:34:02.328Z,8.60
2023-04-26T22:36:28.960Z,8.95
2023-04-26T22:38:55.573Z,10.45
2023-04-26T22:41:22.210Z,11.90
2023-04-26T22:43:48.874Z,10.10
2023-04-26T22:46:15.580Z,10.30
2023-04-26T22:48:42.235Z,10.68
2023-04-26T22:51:08.879Z,11.23
2023-04-26T22:53:35.524Z,11.15
2023-04-26T22:56:02.137Z,8.63
2023-04-26T22:58:28.863Z,10.48
2023-04-26T23:00:55.507Z,9.55
2023-04-26T23:03:22.422Z,10.77
2023-04-26T23:05:49.087Z,11.75
2023-04-26T23:08:15.690Z,10.07
2023-04-26T23:10:42.269Z,10.70
2023-04-26T23:13:08.917Z,9.07
2023-04-26T23:15:35.600Z,10.98
2023-04-26T23:18:02.361Z,10.43
2023-04-26T23:20:28.979Z,17.00
2023-04-26T23:22:55.623Z,9.57
2023-04-26T23:25:22.262Z,13.70
2023-04-26T23:27:48.930Z,11.80
2023-04-26T23:30:15.868Z,9.85
2023-04-26T23:32:42.486Z,12.68
2023-04-26T23:35:09.498Z,10.20
2023-04-26T23:37:36.165Z,12.05
2023-04-26T23:40:02.915Z,10.75
2023-04-26T23:42:29.509Z,10.32
2023-04-26T23:44:56.247Z,11.30
2023-04-26T23:47:22.900Z,8.77
2023-04-26T23:49:49.531Z,8.50
2023-04-26T23:52:16.155Z,10.20
2023-04-26T23:54:42.776Z,10.95
2023-04-26T23:57:09.436Z,11.25
2023-04-26T23:59:36.027Z,12.25
